Time;durP1;ratioP1;P1;durP2;ratioP2;P2;SDS_P1;SDS_P2;PMS_P1;PMS_P2;Temp;Humidity;BMP_temperature;BMP_pressure;BME280_temperature;BME280_humidity;BME280_pressure;Samples;Min_cycle;Max_cycle;Signal;HPM_P1;HPM_P2
2022/09/04 00:00:32;;;;;;;;;;;18.00;98.70;;;;;;4938430;28;20398;-81
2022/09/04 00:03:09;;;;;;;;;;;18.00;98.50;;;;;;4936805;28;19962;-81
2022/09/04 00:05:37;;;;;;;;;;;18.00;98.50;;;;;;4938045;29;20005;-81
2022/09/04 00:08:17;;;;;;;;;;;18.00;98.50;;;;;;4938356;28;20670;-81
2022/09/04 00:10:47;;;;;;;;;;;17.90;98.40;;;;;;4939074;28;19938;-81
2022/09/04 00:13:17;;;;;;;;;;;17.90;98.40;;;;;;4925708;29;20069;-80
2022/09/04 00:15:46;;;;;;;;;;;17.90;98.40;;;;;;4941027;28;19938;-80
2022/09/04 00:18:16;;;;;;;;;;;17.90;98.40;;;;;;4936527;28;19934;-80
2022/09/04 00:20:47;;;;;;;;;;;17.90;98.40;;;;;;4921097;29;19939;-80
2022/09/04 00:23:18;;;;;;;;;;;17.90;98.40;;;;;;4939828;28;19966;-81
2022/09/04 00:25:50;;;;;;;;;;;17.90;98.40;;;;;;4932359;29;19935;-81
2022/09/04 00:28:19;;;;;;;;;;;17.80;98.30;;;;;;4942923;28;22199;-81
2022/09/04 00:30:53;;;;;;;;;;;17.80;98.40;;;;;;4925095;29;20020;-80
2022/09/04 00:33:24;;;;;;;;;;;17.80;98.30;;;;;;4938159;28;20092;-80
2022/09/04 00:35:54;;;;;;;;;;;17.80;98.40;;;;;;4942131;28;19946;-81
2022/09/04 00:38:24;;;;;;;;;;;17.80;98.40;;;;;;4935921;29;20418;-81
2022/09/04 00:40:56;;;;;;;;;;;17.80;98.30;;;;;;4921360;29;19933;-79
2022/09/04 00:43:44;;;;;;;;;;;17.70;98.30;;;;;;4928747;28;19926;-81
2022/09/04 00:46:21;;;;;;;;;;;17.70;98.30;;;;;;4945312;28;20027;-79
2022/09/04 00:49:06;;;;;;;;;;;17.70;98.30;;;;;;4943118;28;19927;-80
2022/09/04 00:51:36;;;;;;;;;;;17.70;98.30;;;;;;4901958;28;20172;-80
2022/09/04 00:54:30;;;;;;;;;;;17.70;98.30;;;;;;4927151;28;19946;-81
2022/09/04 00:57:12;;;;;;;;;;;17.60;98.20;;;;;;4941122;28;20472;-81
2022/09/04 00:59:53;;;;;;;;;;;17.60;98.20;;;;;;4940668;28;20107;-80
2022/09/04 01:02:28;;;;;;;;;;;17.60;98.20;;;;;;4944562;29;19961;-81
2022/09/04 01:04:58;;;;;;;;;;;17.60;98.20;;;;;;4923038;28;20357;-81
2022/09/04 01:07:36;;;;;;;;;;;17.60;98.20;;;;;;4937184;28;19937;-81
2022/09/04 01:10:18;;;;;;;;;;;17.50;98.20;;;;;;4925478;29;21158;-82
2022/09/04 01:12:48;;;;;;;;;;;17.60;98.20;;;;;;4938556;28;20432;-80
2022/09/04 01:15:16;;;;;;;;;;;17.50;98.20;;;;;;4944699;28;20420;-81
2022/09/04 01:17:53;;;;;;;;;;;17.50;98.20;;;;;;4945990;28;20353;-81
2022/09/04 01:20:27;;;;;;;;;;;17.50;98.20;;;;;;4931085;29;19941;-81
2022/09/04 01:23:18;;;;;;;;;;;17.50;98.20;;;;;;4944167;28;19986;-80
2022/09/04 01:25:56;;;;;;;;;;;17.50;98.20;;;;;;4872011;29;19928;-80
2022/09/04 01:28:26;;;;;;;;;;;17.40;98.20;;;;;;4950832;28;19930;-80
2022/09/04 01:30:57;;;;;;;;;;;17.40;98.20;;;;;;4950551;28;20017;-80
2022/09/04 01:33:28;;;;;;;;;;;17.40;98.20;;;;;;4941634;28;19934;-81
2022/09/04 01:35:57;;;;;;;;;;;17.40;98.20;;;;;;4939238;28;19966;-81
2022/09/04 01:38:29;;;;;;;;;;;17.40;98.30;;;;;;4940958;28;20143;-80
2022/09/04 01:41:00;;;;;;;;;;;17.40;98.20;;;;;;4934565;28;19963;-79
2022/09/04 01:43:27;;;;;;;;;;;17.40;98.30;;;;;;4945412;28;20025;-80
2022/09/04 01:46:13;;;;;;;;;;;17.40;98.30;;;;;;4943080;28;20030;-80
2022/09/04 01:48:43;;;;;;;;;;;17.40;98.30;;;;;;4930382;29;20026;-81
2022/09/04 01:51:20;;;;;;;;;;;17.30;98.30;;;;;;4919413;29;19930;-80
2022/09/04 01:53:53;;;;;;;;;;;17.30;98.30;;;;;;4920059;28;19945;-81
2022/09/04 01:56:25;;;;;;;;;;;17.30;98.30;;;;;;4925547;28;20009;-81
2022/09/04 01:58:54;;;;;;;;;;;17.30;98.30;;;;;;4903250;29;20081;-81
2022/09/04 02:01:24;;;;;;;;;;;17.30;98.30;;;;;;4935481;28;19927;-81
2022/09/04 02:03:55;;;;;;;;;;;17.30;98.30;;;;;;4937441;28;20009;-81
2022/09/04 02:06:27;;;;;;;;;;;17.20;98.30;;;;;;4939224;28;20337;-80
2022/09/04 02:09:00;;;;;;;;;;;17.20;98.30;;;;;;4915341;28;20298;-79
2022/09/04 02:11:29;;;;;;;;;;;17.20;98.30;;;;;;4938903;28;20108;-80
2022/09/04 02:14:03;;;;;;;;;;;17.20;98.30;;;;;;4922643;29;20381;-80
2022/09/04 02:16:37;;;;;;;;;;;17.20;98.30;;;;;;4935845;28;19954;-81
2022/09/04 02:19:09;;;;;;;;;;;17.20;98.30;;;;;;4937314;29;20885;-80
2022/09/04 02:21:36;;;;;;;;;;;17.10;98.20;;;;;;4935874;28;19931;-82
2022/09/04 02:24:07;;;;;;;;;;;17.10;98.20;;;;;;4934798;28;20057;-82
2022/09/04 02:26:37;;;;;;;;;;;17.10;98.20;;;;;;4937511;28;19987;-82
2022/09/04 02:29:08;;;;;;;;;;;17.10;98.30;;;;;;4929069;29;20389;-83
2022/09/04 02:31:38;;;;;;;;;;;17.10;98.30;;;;;;4940097;28;19974;-81
2022/09/04 02:34:08;;;;;;;;;;;17.00;98.30;;;;;;4932148;28;20384;-80
2022/09/04 02:36:39;;;;;;;;;;;17.10;98.40;;;;;;4938708;29;19935;-80
2022/09/04 02:39:12;;;;;;;;;;;17.00;98.30;;;;;;4935838;29;19931;-79
2022/09/04 02:41:49;;;;;;;;;;;17.00;98.30;;;;;;4930453;28;19931;-79
2022/09/04 02:44:25;;;;;;;;;;;17.00;98.30;;;;;;4940161;28;20711;-79
2022/09/04 02:46:56;;;;;;;;;;;17.00;98.30;;;;;;4923345;29;21500;-80
2022/09/04 02:49:38;;;;;;;;;;;17.00;98.30;;;;;;4921546;29;19931;-80
2022/09/04 02:52:12;;;;;;;;;;;17.00;98.40;;;;;;4914246;29;20297;-80
2022/09/04 02:54:44;;;;;;;;;;;16.90;98.30;;;;;;4938595;28;19950;-81
2022/09/04 02:57:20;;;;;;;;;;;16.90;98.30;;;;;;4932309;29;20744;-79
2022/09/04 02:59:54;;;;;;;;;;;16.90;98.30;;;;;;4935125;28;19926;-80
2022/09/04 03:02:23;;;;;;;;;;;16.90;98.30;;;;;;4940030;28;19934;-80
2022/09/04 03:04:52;;;;;;;;;;;16.90;98.30;;;;;;4939309;28;19935;-80
2022/09/04 03:07:24;;;;;;;;;;;16.80;98.30;;;;;;4935268;28;20374;-80
2022/09/04 03:09:53;;;;;;;;;;;16.90;98.40;;;;;;4933712;28;19934;-80
2022/09/04 03:12:30;;;;;;;;;;;16.80;98.30;;;;;;4938292;28;20007;-79
2022/09/04 03:15:01;;;;;;;;;;;16.80;98.30;;;;;;4934644;28;19931;-81
2022/09/04 03:17:33;;;;;;;;;;;16.80;98.30;;;;;;4937599;29;19927;-80
2022/09/04 03:20:03;;;;;;;;;;;16.80;98.30;;;;;;4919260;28;20434;-80
2022/09/04 03:22:33;;;;;;;;;;;16.80;98.40;;;;;;4940695;28;20460;-80
2022/09/04 03:25:02;;;;;;;;;;;16.70;98.30;;;;;;4936929;28;19962;-81
2022/09/04 03:27:32;;;;;;;;;;;16.80;98.40;;;;;;4939758;29;19927;-80
2022/09/04 03:30:11;;;;;;;;;;;16.60;98.30;;;;;;4936576;28;20457;-84
2022/09/04 03:32:43;;;;;;;;;;;16.70;98.40;;;;;;4937056;28;20433;-83
2022/09/04 03:35:15;;;;;;;;;;;16.70;98.30;;;;;;4936502;28;19930;-80
2022/09/04 03:37:48;;;;;;;;;;;16.70;98.30;;;;;;4937512;28;19930;-80
2022/09/04 03:40:22;;;;;;;;;;;16.70;98.30;;;;;;4922027;28;19954;-80
2022/09/04 03:43:03;;;;;;;;;;;16.70;98.40;;;;;;4933068;28;20287;-80
2022/09/04 03:45:37;;;;;;;;;;;16.60;98.30;;;;;;4923902;29;19934;-80
2022/09/04 03:48:12;;;;;;;;;;;16.60;98.30;;;;;;4934058;28;20362;-80
2022/09/04 03:50:43;;;;;;;;;;;16.60;98.30;;;;;;4942430;29;19970;-80
2022/09/04 03:53:14;;;;;;;;;;;16.60;98.30;;;;;;4923396;28;19935;-81
2022/09/04 03:55:55;;;;;;;;;;;16.60;98.30;;;;;;4933937;28;19926;-80
2022/09/04 03:58:27;;;;;;;;;;;16.60;98.40;;;;;;4936876;28;20278;-80
2022/09/04 04:01:00;;;;;;;;;;;16.60;98.40;;;;;;4933355;28;19934;-80
2022/09/04 04:03:44;;;;;;;;;;;16.50;98.30;;;;;;4921161;29;20650;-83
2022/09/04 04:06:18;;;;;;;;;;;16.50;98.20;;;;;;4937210;28;20205;-80
2022/09/04 04:08:55;;;;;;;;;;;16.50;98.30;;;;;;4929336;29;19941;-81
2022/09/04 04:11:31;;;;;;;;;;;16.40;98.30;;;;;;4934358;28;20300;-79
2022/09/04 04:14:11;;;;;;;;;;;16.40;98.30;;;;;;4938076;28;19930;-80
2022/09/04 04:16:43;;;;;;;;;;;16.40;98.30;;;;;;4935214;28;19938;-82
2022/09/04 04:19:20;;;;;;;;;;;16.40;98.40;;;;;;4932714;28;19927;-82
2022/09/04 04:21:55;;;;;;;;;;;16.40;98.40;;;;;;4936175;28;20294;-80
2022/09/04 04:24:31;;;;;;;;;;;16.40;98.40;;;;;;4935255;28;20429;-81
2022/09/04 04:27:05;;;;;;;;;;;16.30;98.20;;;;;;4918903;28;20259;-82
2022/09/04 04:29:41;;;;;;;;;;;16.30;98.30;;;;;;4933715;28;20100;-82
2022/09/04 04:32:23;;;;;;;;;;;16.30;98.40;;;;;;4931585;28;21308;-82
2022/09/04 04:34:55;;;;;;;;;;;16.20;98.30;;;;;;4937587;28;19986;-84
2022/09/04 04:37:30;;;;;;;;;;;16.20;98.40;;;;;;4929360;28;20498;-83
2022/09/04 04:40:01;;;;;;;;;;;16.20;98.40;;;;;;4928338;28;19938;-80
2022/09/04 04:42:31;;;;;;;;;;;16.20;98.40;;;;;;4938529;28;19969;-81
2022/09/04 04:48:00;;;;;;;;;;;16.20;98.40;;;;;;4937218;28;20047;-80
2022/09/04 04:50:31;;;;;;;;;;;16.30;98.40;;;;;;4939461;28;19931;-80
2022/09/04 04:53:02;;;;;;;;;;;16.20;98.30;;;;;;4918662;29;20017;-79
2022/09/04 04:55:37;;;;;;;;;;;16.20;98.40;;;;;;4920258;28;19985;-80
2022/09/04 04:58:18;;;;;;;;;;;16.20;98.40;;;;;;4936948;29;19930;-83
2022/09/04 05:00:48;;;;;;;;;;;16.20;98.30;;;;;;4939738;28;19937;-83
2022/09/04 05:03:19;;;;;;;;;;;16.20;98.30;;;;;;4929980;28;21640;-82
2022/09/04 05:05:52;;;;;;;;;;;16.20;98.30;;;;;;4935591;28;19927;-82
2022/09/04 05:08:25;;;;;;;;;;;16.10;98.20;;;;;;4922711;29;20274;-82
2022/09/04 05:10:55;;;;;;;;;;;16.10;98.30;;;;;;4938728;28;20027;-82
2022/09/04 05:13:24;;;;;;;;;;;16.00;98.20;;;;;;4940026;29;20408;-83
2022/09/04 05:16:00;;;;;;;;;;;16.00;98.40;;;;;;4935183;28;19931;-81
2022/09/04 05:18:30;;;;;;;;;;;15.90;98.40;;;;;;4932909;28;19937;-80
2022/09/04 05:20:59;;;;;;;;;;;15.90;98.50;;;;;;4934649;28;19938;-79
2022/09/04 05:23:32;;;;;;;;;;;15.90;98.50;;;;;;4937049;28;20013;-83
2022/09/04 05:26:02;;;;;;;;;;;15.90;98.60;;;;;;4925354;28;20043;-83
2022/09/04 05:28:33;;;;;;;;;;;15.80;98.60;;;;;;4944118;28;19935;-82
2022/09/04 05:31:11;;;;;;;;;;;15.80;98.60;;;;;;4936100;28;20225;-81
2022/09/04 05:33:40;;;;;;;;;;;15.80;98.60;;;;;;4938440;28;20401;-80
2022/09/04 05:36:12;;;;;;;;;;;15.80;98.70;;;;;;4946289;28;19927;-81
2022/09/04 05:38:43;;;;;;;;;;;15.80;98.80;;;;;;4942070;28;19933;-81
2022/09/04 05:41:19;;;;;;;;;;;15.70;98.90;;;;;;4944250;28;19935;-82
2022/09/04 05:43:52;;;;;;;;;;;15.70;98.80;;;;;;4935629;28;19934;-81
2022/09/04 05:46:27;;;;;;;;;;;15.70;98.80;;;;;;4938963;28;19931;-82
2022/09/04 05:48:59;;;;;;;;;;;15.70;98.80;;;;;;4919729;28;19933;-80
2022/09/04 05:51:41;;;;;;;;;;;15.70;99.00;;;;;;4937430;28;19934;-81
2022/09/04 05:54:24;;;;;;;;;;;15.70;99.10;;;;;;4936379;28;19989;-82
2022/09/04 05:56:57;;;;;;;;;;;15.70;99.10;;;;;;4943359;28;20005;-81
2022/09/04 05:59:30;;;;;;;;;;;15.60;99.30;;;;;;4923580;29;19984;-81
2022/09/04 06:02:27;;;;;;;;;;;15.60;99.40;;;;;;4924083;29;19969;-81
2022/09/04 06:05:12;;;;;;;;;;;15.60;99.50;;;;;;4902567;29;20418;-81
2022/09/04 06:07:45;;;;;;;;;;;15.60;99.60;;;;;;4930920;29;19927;-80
2022/09/04 06:10:16;;;;;;;;;;;15.60;99.70;;;;;;4940337;28;19930;-82
2022/09/04 06:12:51;;;;;;;;;;;15.50;99.60;;;;;;4942077;28;19935;-81
2022/09/04 06:15:22;;;;;;;;;;;15.50;99.70;;;;;;4937203;28;20001;-81
2022/09/04 06:18:13;;;;;;;;;;;15.50;99.80;;;;;;4938777;28;19942;-81
2022/09/04 06:20:46;;;;;;;;;;;15.50;99.90;;;;;;4912744;28;19927;-81
2022/09/04 06:23:24;;;;;;;;;;;15.50;99.90;;;;;;4940179;28;20404;-82
2022/09/04 06:26:15;;;;;;;;;;;15.50;99.90;;;;;;4934543;28;20077;-81
2022/09/04 06:29:00;;;;;;;;;;;15.50;99.90;;;;;;4923707;28;19933;-81
2022/09/04 06:31:39;;;;;;;;;;;15.40;99.90;;;;;;4921578;29;19977;-81
2022/09/04 06:34:10;;;;;;;;;;;15.50;99.90;;;;;;4922849;29;19977;-82
2022/09/04 06:36:55;;;;;;;;;;;15.40;99.90;;;;;;4938119;29;19969;-82
2022/09/04 06:39:39;;;;;;;;;;;15.40;99.90;;;;;;4939436;28;21574;-81
2022/09/04 06:42:14;;;;;;;;;;;15.40;99.90;;;;;;4937094;28;20031;-81
2022/09/04 06:44:48;;;;;;;;;;;15.50;99.90;;;;;;4930319;28;19926;-78
2022/09/04 06:47:22;;;;;;;;;;;15.50;99.90;;;;;;4931725;28;20432;-80
2022/09/04 06:49:58;;;;;;;;;;;15.50;99.90;;;;;;4941438;29;19927;-81
2022/09/04 06:52:29;;;;;;;;;;;15.50;99.90;;;;;;4938723;28;19934;-80
2022/09/04 06:54:59;;;;;;;;;;;15.60;99.90;;;;;;4939538;28;20149;-85
2022/09/04 06:57:45;;;;;;;;;;;15.60;99.90;;;;;;4940673;28;20404;-80
2022/09/04 07:00:12;;;;;;;;;;;15.60;99.90;;;;;;4935855;28;19941;-80
2022/09/04 07:02:58;;;;;;;;;;;15.60;99.90;;;;;;4939819;28;20309;-81
2022/09/04 07:05:29;;;;;;;;;;;15.60;99.90;;;;;;4934842;28;19933;-80
2022/09/04 07:08:03;;;;;;;;;;;15.60;99.90;;;;;;4941040;28;19927;-82
2022/09/04 07:10:33;;;;;;;;;;;15.70;99.90;;;;;;4947759;28;20143;-78
2022/09/04 07:13:16;;;;;;;;;;;15.70;99.90;;;;;;4946608;28;20378;-83
2022/09/04 07:15:46;;;;;;;;;;;15.70;99.90;;;;;;4941606;28;19931;-87
2022/09/04 07:18:23;;;;;;;;;;;15.70;99.90;;;;;;4933879;29;19927;-84
2022/09/04 07:20:55;;;;;;;;;;;15.70;99.90;;;;;;4937615;28;19926;-85
2022/09/04 07:23:27;;;;;;;;;;;15.70;99.90;;;;;;4949962;28;19941;-85
2022/09/04 07:26:02;;;;;;;;;;;15.70;99.90;;;;;;4947742;28;19931;-86
2022/09/04 07:28:34;;;;;;;;;;;15.70;99.90;;;;;;4898954;29;19942;-84
2022/09/04 07:31:02;;;;;;;;;;;15.70;99.90;;;;;;4935451;29;19927;-89
2022/09/04 07:33:34;;;;;;;;;;;15.70;99.90;;;;;;4938202;28;19926;-81
2022/09/04 07:36:06;;;;;;;;;;;15.80;99.90;;;;;;4936541;28;19930;-85
2022/09/04 07:38:37;;;;;;;;;;;15.80;99.90;;;;;;4936307;28;19937;-84
2022/09/04 07:41:09;;;;;;;;;;;15.80;99.90;;;;;;4934452;28;20099;-84
2022/09/04 07:43:40;;;;;;;;;;;15.80;99.90;;;;;;4923754;29;19927;-84
2022/09/04 07:46:13;;;;;;;;;;;15.80;99.90;;;;;;4917079;29;20465;-85
2022/09/04 07:48:42;;;;;;;;;;;15.80;99.90;;;;;;4936184;28;19934;-84
2022/09/04 07:51:12;;;;;;;;;;;15.80;99.90;;;;;;4936723;28;19931;-85
2022/09/04 07:53:53;;;;;;;;;;;15.80;99.90;;;;;;4938319;28;20065;-81
2022/09/04 07:56:25;;;;;;;;;;;15.80;99.90;;;;;;4934542;28;19949;-82
2022/09/04 07:59:09;;;;;;;;;;;15.80;99.90;;;;;;4928979;29;19934;-82
2022/09/04 08:01:42;;;;;;;;;;;15.80;99.90;;;;;;4923330;28;19926;-85
2022/09/04 08:04:36;;;;;;;;;;;15.80;99.90;;;;;;4937060;28;19926;-80
2022/09/04 08:07:05;;;;;;;;;;;15.80;99.90;;;;;;4908044;28;19989;-83
2022/09/04 08:09:48;;;;;;;;;;;15.80;99.90;;;;;;4929914;29;19942;-81
2022/09/04 08:12:33;;;;;;;;;;;15.90;99.90;;;;;;4936948;28;19930;-81
2022/09/04 08:15:09;;;;;;;;;;;15.90;99.90;;;;;;4937987;28;21079;-82
2022/09/04 08:17:53;;;;;;;;;;;15.90;99.90;;;;;;4940727;28;19927;-84
2022/09/04 08:20:30;;;;;;;;;;;15.90;99.90;;;;;;4918184;29;19927;-84
2022/09/04 08:23:02;;;;;;;;;;;15.90;99.90;;;;;;4919721;28;19982;-82
2022/09/04 08:25:43;;;;;;;;;;;15.90;99.90;;;;;;4927611;29;19935;-81
2022/09/04 08:28:23;;;;;;;;;;;15.90;99.90;;;;;;4942415;28;19942;-84
2022/09/04 08:30:54;;;;;;;;;;;15.90;99.90;;;;;;4923890;28;19941;-81
2022/09/04 08:33:32;;;;;;;;;;;16.00;99.90;;;;;;4938530;28;20456;-82
2022/09/04 08:36:00;;;;;;;;;;;16.00;99.90;;;;;;4937507;28;19942;-81
2022/09/04 08:38:35;;;;;;;;;;;16.00;99.90;;;;;;4938474;28;19926;-81
2022/09/04 08:41:20;;;;;;;;;;;16.00;99.90;;;;;;4935755;28;20467;-82
2022/09/04 08:44:08;;;;;;;;;;;16.00;99.90;;;;;;4945224;28;19926;-81
2022/09/04 08:46:57;;;;;;;;;;;16.00;99.90;;;;;;4946748;28;19934;-85
2022/09/04 08:49:42;;;;;;;;;;;16.00;99.90;;;;;;4938762;28;19966;-84
2022/09/04 08:52:26;;;;;;;;;;;16.00;99.90;;;;;;4946648;28;19931;-80
2022/09/04 08:55:14;;;;;;;;;;;16.00;99.90;;;;;;4940104;28;19982;-83
2022/09/04 08:57:59;;;;;;;;;;;16.10;99.90;;;;;;4930381;28;19934;-84
2022/09/04 09:00:28;;;;;;;;;;;16.40;99.90;;;;;;4918578;29;20013;-82
2022/09/04 09:03:22;;;;;;;;;;;16.70;99.90;;;;;;4943796;28;20286;-81
2022/09/04 09:06:07;;;;;;;;;;;16.90;99.90;;;;;;4918948;29;19927;-79
2022/09/04 09:08:53;;;;;;;;;;;17.00;99.90;;;;;;4927927;29;19958;-80
2022/09/04 09:11:32;;;;;;;;;;;17.00;99.90;;;;;;4939701;28;20377;-79
2022/09/04 09:14:16;;;;;;;;;;;16.90;99.90;;;;;;4930878;29;19930;-79
2022/09/04 09:16:44;;;;;;;;;;;16.80;99.90;;;;;;4941569;28;20313;-80
2022/09/04 09:19:17;;;;;;;;;;;16.90;99.90;;;;;;4940147;28;20412;-81
2022/09/04 09:21:48;;;;;;;;;;;16.90;99.90;;;;;;4938089;28;19937;-82
2022/09/04 09:24:25;;;;;;;;;;;17.00;99.90;;;;;;4941516;29;19935;-82
2022/09/04 09:27:01;;;;;;;;;;;17.10;99.90;;;;;;4947907;28;19937;-83
2022/09/04 09:29:46;;;;;;;;;;;17.00;99.90;;;;;;4952422;28;19981;-82
2022/09/04 09:32:33;;;;;;;;;;;16.90;99.90;;;;;;4925631;29;19934;-82
2022/09/04 09:35:20;;;;;;;;;;;16.80;99.90;;;;;;4925648;29;19994;-81
2022/09/04 09:37:55;;;;;;;;;;;16.80;99.90;;;;;;4946347;28;19973;-81
2022/09/04 09:40:31;;;;;;;;;;;16.70;99.90;;;;;;4942860;28;19982;-82
2022/09/04 09:43:12;;;;;;;;;;;16.70;99.90;;;;;;4942515;28;19959;-82
2022/09/04 09:45:57;;;;;;;;;;;16.70;99.90;;;;;;4950372;28;20020;-82
2022/09/04 09:48:37;;;;;;;;;;;16.80;99.90;;;;;;4947102;28;19934;-81
2022/09/04 09:51:18;;;;;;;;;;;16.70;99.90;;;;;;4938222;28;19930;-82
2022/09/04 09:54:03;;;;;;;;;;;16.70;99.90;;;;;;4927973;28;19927;-82
2022/09/04 09:56:45;;;;;;;;;;;16.80;99.90;;;;;;4947400;28;20389;-82
2022/09/04 09:59:27;;;;;;;;;;;16.80;99.90;;;;;;4933113;28;19958;-81
2022/09/04 10:02:08;;;;;;;;;;;16.80;99.90;;;;;;4933466;28;20377;-81
2022/09/04 10:04:53;;;;;;;;;;;17.10;99.90;;;;;;4917968;29;20323;-80
2022/09/04 10:07:44;;;;;;;;;;;17.40;99.90;;;;;;4912390;29;19926;-81
2022/09/04 10:10:23;;;;;;;;;;;17.50;99.90;;;;;;4945315;28;20306;-82
2022/09/04 10:13:14;;;;;;;;;;;17.30;99.90;;;;;;4929366;28;20033;-82
2022/09/04 10:16:14;;;;;;;;;;;17.30;99.90;;;;;;4920600;28;19985;-79
2022/09/04 10:18:52;;;;;;;;;;;17.30;99.90;;;;;;4898073;29;19942;-80
2022/09/04 10:21:40;;;;;;;;;;;17.20;99.90;;;;;;4899165;29;20461;-80
2022/09/04 10:24:34;;;;;;;;;;;17.20;99.90;;;;;;4926933;28;19973;-78
2022/09/04 10:27:10;;;;;;;;;;;17.20;99.90;;;;;;4936898;28;20013;-80
2022/09/04 10:29:47;;;;;;;;;;;17.20;99.90;;;;;;4938813;28;19982;-80
2022/09/04 10:32:38;;;;;;;;;;;17.20;99.90;;;;;;4939643;28;19931;-80
2022/09/04 10:35:16;;;;;;;;;;;17.20;99.90;;;;;;4865293;29;20015;-81
2022/09/04 10:37:53;;;;;;;;;;;17.30;99.90;;;;;;4938961;28;19931;-80
2022/09/04 10:40:37;;;;;;;;;;;17.30;99.90;;;;;;4937711;28;19930;-83
2022/09/04 10:43:18;;;;;;;;;;;17.30;99.90;;;;;;4942040;28;19926;-90
2022/09/04 10:45:46;;;;;;;;;;;17.30;99.90;;;;;;4933661;28;20419;-81
2022/09/04 10:48:34;;;;;;;;;;;17.40;99.90;;;;;;4941348;28;19997;-78
2022/09/04 10:51:22;;;;;;;;;;;17.40;99.90;;;;;;4913754;28;21838;-80
2022/09/04 10:54:07;;;;;;;;;;;17.40;99.90;;;;;;4924930;28;19965;-77
2022/09/04 10:56:41;;;;;;;;;;;17.50;99.90;;;;;;4938803;28;20305;-78
2022/09/04 10:59:20;;;;;;;;;;;17.50;99.90;;;;;;4933035;28;19942;-77
2022/09/04 11:02:10;;;;;;;;;;;17.50;99.90;;;;;;4922088;28;19934;-77
2022/09/04 11:04:58;;;;;;;;;;;17.50;99.90;;;;;;4884941;28;19983;-78
2022/09/04 11:07:47;;;;;;;;;;;17.50;99.90;;;;;;4936996;28;20013;-78
2022/09/04 11:10:30;;;;;;;;;;;17.50;99.90;;;;;;4902182;28;19930;-77
2022/09/04 11:13:15;;;;;;;;;;;17.50;99.90;;;;;;4937998;28;20369;-77
2022/09/04 11:15:50;;;;;;;;;;;17.50;99.90;;;;;;4939780;28;19958;-79
2022/09/04 11:18:35;;;;;;;;;;;17.50;99.90;;;;;;4922659;29;19931;-80
2022/09/04 11:21:24;;;;;;;;;;;17.60;99.90;;;;;;4937619;28;20021;-77
2022/09/04 11:24:08;;;;;;;;;;;17.60;99.90;;;;;;4935765;28;19966;-76
2022/09/04 11:27:00;;;;;;;;;;;17.60;99.90;;;;;;4914626;29;19957;-77
2022/09/04 11:29:47;;;;;;;;;;;17.60;99.90;;;;;;4932464;28;19930;-77
2022/09/04 11:32:30;;;;;;;;;;;17.70;99.90;;;;;;4928129;28;19953;-77
2022/09/04 11:35:16;;;;;;;;;;;17.70;99.90;;;;;;4920634;29;19931;-77
2022/09/04 11:38:04;;;;;;;;;;;17.70;99.90;;;;;;4931896;28;20772;-76
2022/09/04 11:40:46;;;;;;;;;;;17.70;99.90;;;;;;4916432;28;19934;-78
2022/09/04 11:43:21;;;;;;;;;;;17.70;99.90;;;;;;4878677;28;19972;-78
2022/09/04 11:46:01;;;;;;;;;;;17.70;99.90;;;;;;4930711;28;19938;-77
2022/09/04 11:48:41;;;;;;;;;;;17.70;99.90;;;;;;4929651;28;20321;-77
2022/09/04 11:51:18;;;;;;;;;;;17.80;99.90;;;;;;4934690;28;20396;-76
2022/09/04 11:54:04;;;;;;;;;;;17.80;99.90;;;;;;4927427;28;20200;-76
2022/09/04 11:56:39;;;;;;;;;;;17.80;99.90;;;;;;4936198;28;20956;-76
2022/09/04 11:59:15;;;;;;;;;;;17.90;99.90;;;;;;4920342;29;19930;-77
2022/09/04 12:01:54;;;;;;;;;;;17.80;99.90;;;;;;4934758;28;20573;-77
2022/09/04 12:04:29;;;;;;;;;;;17.90;99.90;;;;;;4938030;28;19970;-77
2022/09/04 12:07:13;;;;;;;;;;;17.90;99.90;;;;;;4935683;28;20409;-77
2022/09/04 12:09:54;;;;;;;;;;;17.90;99.90;;;;;;4918615;29;19933;-77
2022/09/04 12:12:34;;;;;;;;;;;18.00;99.90;;;;;;4926747;28;19969;-76
2022/09/04 12:15:22;;;;;;;;;;;18.00;99.90;;;;;;4920620;28;19978;-81
2022/09/04 12:18:22;;;;;;;;;;;18.30;99.90;;;;;;4918983;29;20024;-81
2022/09/04 12:21:05;;;;;;;;;;;18.40;99.90;;;;;;4888832;29;19979;-81
2022/09/04 12:23:41;;;;;;;;;;;18.50;99.90;;;;;;4889839;29;19931;-81
2022/09/04 12:26:23;;;;;;;;;;;18.40;99.90;;;;;;4924222;28;20386;-80
2022/09/04 12:29:02;;;;;;;;;;;18.40;99.90;;;;;;4944385;28;19951;-81
2022/09/04 12:31:45;;;;;;;;;;;18.50;99.90;;;;;;4948686;28;19937;-81
2022/09/04 12:34:36;;;;;;;;;;;18.50;99.90;;;;;;4937422;29;19937;-81
2022/09/04 12:37:22;;;;;;;;;;;18.50;99.90;;;;;;4924309;29;19945;-81
2022/09/04 12:40:07;;;;;;;;;;;18.60;99.90;;;;;;4951695;28;19942;-81
2022/09/04 12:42:37;;;;;;;;;;;18.60;99.90;;;;;;4936412;28;20025;-81
2022/09/04 12:45:10;;;;;;;;;;;18.60;99.90;;;;;;4946801;28;20010;-81
2022/09/04 12:47:45;;;;;;;;;;;18.60;99.90;;;;;;4944846;28;19926;-81
2022/09/04 12:50:18;;;;;;;;;;;18.70;99.90;;;;;;4946279;28;20418;-81
2022/09/04 12:52:51;;;;;;;;;;;18.70;99.90;;;;;;4938757;28;20252;-80
2022/09/04 12:55:23;;;;;;;;;;;18.80;99.90;;;;;;4939092;28;19926;-80
2022/09/04 12:57:57;;;;;;;;;;;18.80;99.90;;;;;;4946992;28;19930;-80
2022/09/04 13:00:31;;;;;;;;;;;18.90;99.90;;;;;;4943963;28;19951;-81
2022/09/04 13:03:04;;;;;;;;;;;18.90;99.90;;;;;;4943024;28;19937;-80
2022/09/04 13:05:35;;;;;;;;;;;19.00;99.90;;;;;;4941989;28;19951;-81
2022/09/04 13:08:07;;;;;;;;;;;19.00;99.90;;;;;;4944502;28;19941;-82
2022/09/04 13:10:38;;;;;;;;;;;19.10;99.90;;;;;;4943653;28;20142;-81
2022/09/04 13:13:12;;;;;;;;;;;19.10;99.90;;;;;;4945138;28;20428;-81
2022/09/04 13:15:43;;;;;;;;;;;19.10;99.90;;;;;;4945476;28;19930;-81
2022/09/04 13:18:23;;;;;;;;;;;19.20;99.90;;;;;;4947382;28;19958;-80
2022/09/04 13:20:53;;;;;;;;;;;19.20;99.90;;;;;;4945712;28;19957;-81
2022/09/04 13:23:24;;;;;;;;;;;19.30;99.90;;;;;;4940654;28;19938;-80
2022/09/04 13:26:00;;;;;;;;;;;19.30;99.90;;;;;;4940334;28;20341;-81
2022/09/04 13:28:34;;;;;;;;;;;19.40;99.90;;;;;;4950193;28;20308;-81
2022/09/04 13:31:08;;;;;;;;;;;19.40;99.90;;;;;;4942492;28;19962;-80
2022/09/04 13:33:42;;;;;;;;;;;19.40;99.90;;;;;;4946456;28;19926;-82
2022/09/04 13:36:15;;;;;;;;;;;19.50;99.90;;;;;;4945852;28;19934;-81
2022/09/04 13:39:06;;;;;;;;;;;19.50;99.90;;;;;;4932428;28;19926;-81
2022/09/04 13:41:44;;;;;;;;;;;19.60;99.90;;;;;;4939390;28;19939;-81
2022/09/04 13:44:20;;;;;;;;;;;19.70;99.90;;;;;;4937607;28;19934;-80
2022/09/04 13:46:49;;;;;;;;;;;19.70;99.90;;;;;;4945573;28;19934;-81
2022/09/04 13:49:18;;;;;;;;;;;19.70;99.90;;;;;;4953338;28;19927;-81
2022/09/04 13:51:47;;;;;;;;;;;19.80;99.90;;;;;;4950235;28;20041;-81
2022/09/04 13:54:18;;;;;;;;;;;19.80;99.90;;;;;;4951131;28;19926;-82
2022/09/04 13:56:51;;;;;;;;;;;19.80;99.90;;;;;;4932770;28;19937;-78
2022/09/04 13:59:19;;;;;;;;;;;19.90;99.90;;;;;;4940783;28;20029;-79
2022/09/04 14:01:49;;;;;;;;;;;20.00;99.90;;;;;;4926403;29;20349;-78
2022/09/04 14:04:18;;;;;;;;;;;20.00;99.90;;;;;;4936751;28;20550;-83
2022/09/04 14:06:46;;;;;;;;;;;20.10;99.90;;;;;;4940041;28;19937;-83
2022/09/04 14:09:15;;;;;;;;;;;20.20;99.90;;;;;;4941371;28;19937;-83
2022/09/04 14:12:00;;;;;;;;;;;20.20;99.90;;;;;;4948388;28;19981;-83
2022/09/04 14:14:39;;;;;;;;;;;20.20;99.90;;;;;;4927449;28;19942;-83
2022/09/04 14:17:07;;;;;;;;;;;20.30;99.90;;;;;;4933190;29;20389;-83
2022/09/04 14:19:45;;;;;;;;;;;20.30;99.90;;;;;;4939882;28;19927;-83
2022/09/04 14:22:26;;;;;;;;;;;20.30;99.90;;;;;;4934808;29;20137;-83
2022/09/04 14:24:59;;;;;;;;;;;20.40;99.90;;;;;;4945145;28;19930;-82
2022/09/04 14:27:31;;;;;;;;;;;20.40;99.90;;;;;;4928054;29;19931;-83
2022/09/04 14:30:06;;;;;;;;;;;20.40;99.90;;;;;;4936736;29;19926;-83
2022/09/04 14:32:38;;;;;;;;;;;20.40;99.90;;;;;;4945509;28;19930;-83
2022/09/04 14:35:15;;;;;;;;;;;20.40;99.90;;;;;;4948078;28;19965;-82
2022/09/04 14:37:55;;;;;;;;;;;20.50;99.90;;;;;;4941883;28;19927;-83
2022/09/04 14:40:24;;;;;;;;;;;20.50;99.90;;;;;;4948989;28;19927;-83
2022/09/04 14:42:57;;;;;;;;;;;20.50;99.90;;;;;;4931447;29;19949;-83
2022/09/04 14:45:38;;;;;;;;;;;20.50;99.90;;;;;;4946308;29;20473;-83
2022/09/04 14:48:06;;;;;;;;;;;20.50;99.90;;;;;;4929000;29;19934;-83
2022/09/04 14:50:43;;;;;;;;;;;20.60;99.90;;;;;;4942745;28;19977;-83
2022/09/04 14:53:10;;;;;;;;;;;20.60;99.90;;;;;;4940668;28;20048;-82
2022/09/04 14:55:40;;;;;;;;;;;20.60;99.90;;;;;;4928366;28;19934;-83
2022/09/04 14:58:10;;;;;;;;;;;20.60;99.90;;;;;;4927138;29;21902;-83
2022/09/04 15:00:55;;;;;;;;;;;20.70;99.90;;;;;;4945155;28;19936;-82
2022/09/04 15:03:24;;;;;;;;;;;20.70;99.90;;;;;;4944211;28;19970;-83
2022/09/04 15:05:55;;;;;;;;;;;20.70;99.90;;;;;;4932567;29;19935;-82
2022/09/04 15:08:27;;;;;;;;;;;20.70;99.90;;;;;;4941385;28;19962;-83
2022/09/04 15:10:56;;;;;;;;;;;;;;;;;;4943064;28;19927;-83
2022/09/04 15:13:37;;;;;;;;;;;20.80;99.90;;;;;;4948609;28;19926;-83